Time;durP1;ratioP1;P1;durP2;ratioP2;P2;SDS_P1;SDS_P2;PMS_P1;PMS_P2;Temp;Humidity;BMP_temperature;BMP_pressure;BME280_temperature;BME280_humidity;BME280_pressure;Samples;Min_cycle;Max_cycle;Signal;HPM_P1;HPM_P2
2023/03/28 00:00:16;;;;;;;34.90;8.33;;;2.70;94.80;;;;;;5061460;28;20530;-59
2023/03/28 00:02:43;;;;;;;25.17;9.77;;;2.70;95.50;;;;;;5076540;28;20539;-59
2023/03/28 00:05:11;;;;;;;36.50;10.30;;;2.70;95.80;;;;;;5077809;28;20535;-60
2023/03/28 00:07:38;;;;;;;22.20;6.07;;;2.70;95.50;;;;;;5054926;28;20477;-59
2023/03/28 00:10:06;;;;;;;25.50;9.03;;;2.70;95.70;;;;;;5054732;28;20501;-59
2023/03/28 00:12:32;;;;;;;22.80;7.60;;;2.80;95.00;;;;;;5044884;28;20477;-60
2023/03/28 00:14:59;;;;;;;25.37;9.30;;;2.90;94.40;;;;;;5066940;28;20482;-59
2023/03/28 00:17:26;;;;;;;18.47;7.77;;;2.90;94.10;;;;;;5061042;28;20631;-60
2023/03/28 00:19:53;;;;;;;35.87;12.30;;;2.80;94.00;;;;;;5056957;28;20878;-60
2023/03/28 00:22:21;;;;;;;24.20;8.53;;;4.50;94.60;;;;;;5053559;28;21077;-59
2023/03/28 00:24:49;;;;;;;19.67;8.27;;;2.90;93.90;;;;;;5057400;28;20486;-60
2023/03/28 00:27:16;;;;;;;28.77;9.93;;;2.80;94.50;;;;;;5058205;28;20480;-59
2023/03/28 00:29:43;;;;;;;30.43;9.63;;;2.80;95.00;;;;;;5058947;28;20890;-59
2023/03/28 00:32:10;;;;;;;23.07;9.13;;;2.80;94.60;;;;;;5044358;28;20490;-59
2023/03/28 00:34:37;;;;;;;30.63;11.10;;;2.80;94.50;;;;;;5058049;28;20482;-59
2023/03/28 00:37:04;;;;;;;21.70;7.50;;;2.80;94.40;;;;;;5058255;28;20478;-59
2023/03/28 00:39:33;;;;;;;27.00;10.30;;;2.80;94.00;;;;;;5044252;28;20482;-59
2023/03/28 00:42:02;;;;;;;36.33;12.27;;;2.70;94.00;;;;;;5055241;28;20490;-59
2023/03/28 00:44:49;;;;;;;22.30;8.93;;;2.50;94.70;;;;;;5052902;28;20474;-60
2023/03/28 00:47:37;;;;;;;26.90;10.13;;;2.50;95.20;;;;;;5019432;28;21050;-59
2023/03/28 00:50:09;;;;;;;22.97;9.23;;;2.10;95.00;;;;;;5059959;28;20486;-59
2023/03/28 00:52:39;;;;;;;35.30;10.50;;;2.60;94.80;;;;;;5057856;28;20490;-60
2023/03/28 00:55:12;;;;;;;34.87;10.63;;;2.60;94.50;;;;;;5054551;28;20501;-59
2023/03/28 00:57:40;;;;;;;27.87;10.23;;;2.60;94.20;;;;;;5067712;28;20569;-59
2023/03/28 01:00:11;;;;;;;19.13;7.47;;;2.50;94.10;;;;;;5081435;28;20816;-59
2023/03/28 01:02:40;;;;;;;31.40;10.80;;;2.50;94.40;;;;;;5032147;28;20474;-59
2023/03/28 01:05:07;;;;;;;32.47;12.00;;;2.60;94.50;;;;;;5062238;28;20518;-59
2023/03/28 01:07:39;;;;;;;30.63;10.47;;;2.60;94.20;;;;;;5025252;28;20482;-59
2023/03/28 01:10:09;;;;;;;29.57;10.70;;;2.70;94.20;;;;;;5067599;28;20524;-60
2023/03/28 01:12:36;;;;;;;23.93;9.43;;;2.70;94.00;;;;;;5054853;28;20490;-60
2023/03/28 01:15:03;;;;;;;23.93;10.37;;;2.60;93.80;;;;;;5029677;28;20478;-59
2023/03/28 01:17:30;;;;;;;28.77;10.63;;;2.60;93.70;;;;;;5065103;28;20818;-60
2023/03/28 01:20:12;;;;;;;35.43;13.30;;;2.50;93.50;;;;;;5062181;28;20882;-60
2023/03/28 01:23:02;;;;;;;26.90;10.53;;;2.60;93.60;;;;;;5065593;28;20490;-60
2023/03/28 01:25:54;;;;;;;16.57;7.90;;;2.50;93.30;;;;;;5034219;28;20477;-60
2023/03/28 01:28:35;;;;;;;16.00;7.63;;;2.30;93.50;;;;;;5052529;28;20481;-60
2023/03/28 01:31:38;;;;;;;32.47;10.77;;;2.10;94.50;;;;;;5075696;27;21031;-60
2023/03/28 01:34:33;;;;;;;72.23;21.73;;;2.10;94.70;;;;;;5044702;28;20743;-59
2023/03/28 01:37:22;;;;;;;34.03;11.60;;;2.20;94.60;;;;;;5043848;28;20475;-59
2023/03/28 01:40:06;;;;;;;73.20;24.47;;;2.20;94.40;;;;;;5030717;28;20482;-59
2023/03/28 01:42:43;;;;;;;33.03;11.63;;;2.20;94.20;;;;;;5050752;28;20479;-59
2023/03/28 01:45:17;;;;;;;45.87;11.60;;;2.20;94.10;;;;;;5046190;28;20597;-59
2023/03/28 01:47:51;;;;;;;23.97;8.93;;;2.20;94.00;;;;;;5046270;28;20483;-59
2023/03/28 01:50:24;;;;;;;18.93;10.00;;;2.30;93.90;;;;;;5058904;28;20524;-59
2023/03/28 01:52:58;;;;;;;50.30;17.10;;;2.20;93.70;;;;;;5052058;28;21040;-60
2023/03/28 01:55:29;;;;;;;27.30;10.03;;;2.20;93.80;;;;;;5049699;28;20560;-59
2023/03/28 01:58:02;;;;;;;39.13;12.03;;;2.10;93.80;;;;;;5059494;28;20475;-59
2023/03/28 02:00:33;;;;;;;31.90;10.90;;;2.10;94.00;;;;;;5038454;28;20475;-60
2023/03/28 02:03:05;;;;;;;35.83;12.67;;;2.00;94.20;;;;;;5050236;28;20512;-59
2023/03/28 02:05:34;;;;;;;28.93;11.60;;;2.10;94.00;;;;;;5054543;28;20479;-59
2023/03/28 02:08:07;;;;;;;31.23;11.27;;;2.10;93.90;;;;;;5060013;28;20642;-60
2023/03/28 02:10:36;;;;;;;30.50;10.27;;;2.10;93.70;;;;;;5058060;28;20487;-59
2023/03/28 02:13:06;;;;;;;29.20;11.50;;;2.00;93.30;;;;;;5055407;28;20592;-59
2023/03/28 02:15:33;;;;;;;21.50;9.10;;;1.80;93.30;;;;;;5058493;28;20490;-59
2023/03/28 02:18:03;;;;;;;40.33;11.60;;;1.70;93.90;;;;;;5054688;28;20524;-60
2023/03/28 02:20:32;;;;;;;29.03;10.87;;;1.60;94.70;;;;;;5065568;28;20482;-59
2023/03/28 02:23:05;;;;;;;28.53;11.20;;;1.50;95.30;;;;;;5070237;28;20478;-59
2023/03/28 02:25:32;;;;;;;21.80;9.33;;;1.40;95.70;;;;;;5057880;28;20483;-59
2023/03/28 02:28:04;;;;;;;31.00;11.80;;;1.50;95.40;;;;;;5058468;28;20503;-59
2023/03/28 02:30:31;;;;;;;27.50;10.20;;;1.60;94.80;;;;;;5067537;28;21058;-59
2023/03/28 02:32:59;;;;;;;35.97;12.20;;;1.70;94.70;;;;;;5072982;28;20481;-59
2023/03/28 02:35:32;;;;;;;31.20;11.20;;;1.70;94.50;;;;;;5047822;28;20490;-59
2023/03/28 02:38:07;;;;;;;29.20;10.57;;;1.80;94.50;;;;;;5061467;28;20536;-59
2023/03/28 02:40:46;;;;;;;23.20;9.70;;;1.80;94.10;;;;;;5076368;28;20464;-60
2023/03/28 02:43:37;;;;;;;24.67;8.50;;;0.50;93.60;;;;;;5078600;28;20548;-60
2023/03/28 02:46:12;;;;;;;26.97;8.70;;;1.90;94.10;;;;;;5036502;28;21571;-60
2023/03/28 02:48:54;;;;;;;14.47;7.97;;;1.90;94.10;;;;;;5067028;28;20526;-60
2023/03/28 02:51:30;;;;;;;9.30;6.00;;;1.90;93.80;;;;;;5068525;27;20830;-60
2023/03/28 02:54:11;;;;;;;21.70;10.53;;;1.90;93.60;;;;;;5076035;28;20476;-59
2023/03/28 02:56:45;;;;;;;18.03;7.13;;;1.80;93.60;;;;;;5085591;28;20477;-59
2023/03/28 02:59:16;;;;;;;14.73;8.27;;;1.80;93.90;;;;;;5063396;28;20489;-59
2023/03/28 03:01:44;;;;;;;23.33;8.80;;;1.80;93.80;;;;;;5066108;28;20501;-59
2023/03/28 03:04:12;;;;;;;15.07;7.47;;;1.80;93.70;;;;;;5049606;28;20474;-59
2023/03/28 03:06:39;;;;;;;21.30;9.43;;;1.80;93.40;;;;;;5073186;28;20535;-60
2023/03/28 03:09:07;;;;;;;21.63;9.17;;;3.40;94.10;;;;;;5053024;28;20470;-59
2023/03/28 03:11:34;;;;;;;22.23;9.50;;;1.80;93.60;;;;;;5085060;28;20563;-59
2023/03/28 03:14:00;;;;;;;21.60;10.20;;;1.70;93.50;;;;;;5072345;28;20856;-59
2023/03/28 03:16:28;;;;;;;18.30;8.17;;;1.70;93.30;;;;;;5069239;28;20758;-59
2023/03/28 03:18:55;;;;;;;45.80;13.77;;;1.50;93.00;;;;;;5081014;28;20482;-60
2023/03/28 03:21:24;;;;;;;16.07;7.67;;;1.50;93.00;;;;;;5069480;28;20507;-60
2023/03/28 03:23:50;;;;;;;24.83;10.50;;;1.40;93.00;;;;;;5055744;28;20490;-59
2023/03/28 03:26:19;;;;;;;14.77;6.87;;;1.40;93.10;;;;;;5060126;28;20479;-59
2023/03/28 03:28:46;;;;;;;31.30;11.67;;;1.40;93.10;;;;;;5066968;28;20570;-59
2023/03/28 03:31:13;;;;;;;22.30;7.90;;;1.30;93.60;;;;;;5062391;28;20525;-59
2023/03/28 03:33:40;;;;;;;24.50;10.43;;;1.20;93.80;;;;;;5067173;27;20486;-59
2023/03/28 03:36:08;;;;;;;19.63;7.60;;;1.10;94.60;;;;;;5086077;27;20482;-59
2023/03/28 03:38:35;;;;;;;20.80;9.40;;;1.10;94.80;;;;;;5086311;28;20470;-60
2023/03/28 03:41:02;;;;;;;24.07;9.87;;;1.10;94.50;;;;;;5058887;28;20618;-60
2023/03/28 03:43:30;;;;;;;34.80;12.80;;;1.20;94.30;;;;;;5051323;28;21025;-59
2023/03/28 03:45:58;;;;;;;35.73;12.37;;;1.20;94.20;;;;;;5069560;28;20886;-60
2023/03/28 03:48:25;;;;;;;17.37;8.20;;;1.20;93.90;;;;;;5056107;28;21016;-60
2023/03/28 03:50:52;;;;;;;47.57;13.97;;;1.20;93.70;;;;;;5081194;28;21214;-58
2023/03/28 03:53:19;;;;;;;40.97;10.27;;;1.20;94.20;;;;;;5088719;28;20480;-59
2023/03/28 03:55:46;;;;;;;37.50;12.17;;;1.20;94.10;;;;;;5078067;28;20474;-59
2023/03/28 03:58:12;;;;;;;25.30;10.03;;;1.20;94.10;;;;;;5070502;28;20480;-59
2023/03/28 04:00:43;;;;;;;19.30;9.20;;;1.20;93.90;;;;;;5059888;27;20484;-59
2023/03/28 04:03:10;;;;;;;21.07;8.27;;;1.20;93.80;;;;;;5068570;28;20567;-59
2023/03/28 04:05:36;;;;;;;32.03;10.77;;;1.20;93.60;;;;;;5061295;28;20481;-59
2023/03/28 04:08:03;;;;;;;31.60;10.23;;;1.10;93.50;;;;;;5072874;28;20468;-59
2023/03/28 04:10:30;;;;;;;28.43;9.33;;;1.10;93.60;;;;;;5053253;28;20522;-59
2023/03/28 04:12:56;;;;;;;44.27;13.70;;;1.00;93.80;;;;;;5093169;28;20494;-59
2023/03/28 04:15:23;;;;;;;20.40;8.37;;;1.00;94.00;;;;;;5076027;28;20480;-59
2023/03/28 04:17:55;;;;;;;48.17;13.67;;;1.00;93.90;;;;;;5062443;28;20542;-59
2023/03/28 04:20:22;;;;;;;26.20;10.80;;;1.00;93.60;;;;;;5070773;28;20473;-59
2023/03/28 04:22:49;;;;;;;49.03;13.70;;;1.10;93.50;;;;;;5080043;28;20826;-60
2023/03/28 04:25:16;;;;;;;23.70;8.50;;;1.10;93.20;;;;;;5076690;28;20493;-60
2023/03/28 04:27:46;;;;;;;37.30;11.57;;;1.00;93.10;;;;;;5061395;28;20502;-59
2023/03/28 04:30:14;;;;;;;23.80;8.23;;;1.00;93.50;;;;;;5072486;28;21026;-60
2023/03/28 04:32:41;;;;;;;29.67;10.10;;;1.00;93.30;;;;;;5070369;28;20486;-59
2023/03/28 04:35:10;;;;;;;27.40;9.17;;;;;;;;;;5070363;28;20474;-59
2023/03/28 04:37:37;;;;;;;37.20;10.80;;;0.90;93.20;;;;;;5064269;28;21353;-60
2023/03/28 04:40:09;;;;;;;38.50;10.33;;;0.90;93.20;;;;;;5078971;28;20872;-60
2023/03/28 04:42:36;;;;;;;27.10;8.93;;;;;;;;;;5080087;28;20482;-59
2023/03/28 04:45:04;;;;;;;49.63;11.40;;;;;;;;;;5082256;28;20478;-59
2023/03/28 04:50:54;;;;;;;50.27;13.33;;;0.70;93.10;;;;;;5049145;27;20468;-59
2023/03/28 04:53:21;;;;;;;39.17;10.77;;;0.70;93.20;;;;;;5086301;28;20494;-59
2023/03/28 04:55:49;;;;;;;58.10;12.10;;;;;;;;;;5086072;28;21189;-60
2023/03/28 04:58:16;;;;;;;29.83;9.33;;;;;;;;;;5077549;28;20601;-59
2023/03/28 05:00:44;;;;;;;38.33;10.80;;;;;;;;;;5077158;28;20485;-59
2023/03/28 05:03:12;;;;;;;38.63;10.57;;;0.60;93.00;;;;;;5062422;28;21056;-59
2023/03/28 05:05:40;;;;;;;31.00;9.13;;;0.80;93.10;;;;;;5075842;28;20481;-60
2023/03/28 05:08:08;;;;;;;46.87;10.13;;;0.70;92.70;;;;;;5069845;28;20751;-60
2023/03/28 05:10:35;;;;;;;34.00;9.60;;;;;;;;;;5049023;28;21021;-59
2023/03/28 05:13:02;;;;;;;45.70;12.00;;;;;;;;;;5089601;28;21000;-60
2023/03/28 05:15:29;;;;;;;36.10;11.00;;;0.60;92.70;;;;;;5083689;28;20919;-60
2023/03/28 05:17:56;;;;;;;49.63;13.60;;;0.60;92.80;;;;;;5077500;28;20978;-59
2023/03/28 05:20:22;;;;;;;26.70;9.20;;;0.50;93.00;;;;;;5078259;28;20819;-60
2023/03/28 05:22:49;;;;;;;55.83;14.00;;;0.60;93.30;;;;;;5076535;28;20482;-59
2023/03/28 05:25:17;;;;;;;19.03;8.40;;;0.60;93.10;;;;;;5076101;28;20482;-59
2023/03/28 05:27:44;;;;;;;39.17;11.80;;;0.60;93.00;;;;;;5075765;28;20989;-59
2023/03/28 05:30:12;;;;;;;28.93;9.73;;;0.60;93.20;;;;;;5078008;28;20991;-59
2023/03/28 05:32:38;;;;;;;24.93;9.03;;;0.60;93.40;;;;;;5067469;28;20616;-59
2023/03/28 05:35:07;;;;;;;22.60;9.97;;;0.70;93.40;;;;;;5075457;28;20470;-59
2023/03/28 05:37:34;;;;;;;31.63;11.10;;;0.60;93.10;;;;;;5066673;28;20830;-59
2023/03/28 05:40:01;;;;;;;37.43;13.43;;;0.70;93.10;;;;;;5075878;28;20482;-59
2023/03/28 05:42:29;;;;;;;37.60;9.90;;;0.60;92.70;;;;;;5075599;28;20497;-59
2023/03/28 05:44:55;;;;;;;34.47;12.73;;;0.60;92.50;;;;;;5074358;28;20572;-59
2023/03/28 05:47:22;;;;;;;21.50;9.23;;;0.60;92.60;;;;;;5080041;28;20485;-60
2023/03/28 05:49:49;;;;;;;51.97;13.60;;;0.60;92.50;;;;;;5074197;28;20480;-60
2023/03/28 05:52:15;;;;;;;19.87;9.77;;;0.50;92.90;;;;;;5059596;28;20479;-60
2023/03/28 05:54:42;;;;;;;23.33;10.00;;;0.50;93.00;;;;;;5067088;28;20489;-59
2023/03/28 05:57:09;;;;;;;16.57;8.47;;;2.20;93.70;;;;;;5049037;28;21034;-59
2023/03/28 05:59:39;;;;;;;23.43;10.17;;;0.40;93.00;;;;;;5053620;28;21055;-59
2023/03/28 06:02:06;;;;;;;27.47;11.67;;;0.30;93.30;;;;;;5053325;28;20481;-59
2023/03/28 06:04:33;;;;;;;20.47;9.40;;;0.10;94.50;;;;;;5086804;28;20639;-59
2023/03/28 06:07:00;;;;;;;29.30;12.47;;;0.10;95.20;;;;;;5066824;28;20481;-60
2023/03/28 06:09:30;;;;;;;21.27;10.23;;;0.20;95.50;;;;;;5069172;28;20498;-59
2023/03/28 06:11:57;;;;;;;44.60;14.50;;;0.40;95.30;;;;;;5068640;28;21014;-60
2023/03/28 06:14:24;;;;;;;19.93;9.50;;;0.50;95.10;;;;;;5080167;28;20742;-60
2023/03/28 06:16:54;;;;;;;30.27;13.60;;;0.60;94.90;;;;;;5071940;28;20490;-59
2023/03/28 06:19:21;;;;;;;22.50;9.67;;;0.70;94.60;;;;;;5072881;28;20485;-59
2023/03/28 06:21:47;;;;;;;24.83;13.27;;;1.10;95.20;;;;;;5044119;28;20490;-61
2023/03/28 06:24:14;;;;;;;23.27;12.50;;;2.20;97.00;;;;;;5071164;28;20485;-60
2023/03/28 06:26:41;;;;;;;31.13;14.03;;;3.30;96.60;;;;;;5074127;28;21082;-59
2023/03/28 06:29:08;;;;;;;20.40;12.10;;;4.30;95.60;;;;;;5064985;28;20584;-60
2023/03/28 06:31:35;;;;;;;21.27;13.03;;;5.30;93.80;;;;;;5083880;28;20485;-60
2023/03/28 06:34:03;;;;;;;32.50;14.20;;;6.70;91.80;;;;;;5056206;28;20770;-60
2023/03/28 06:36:30;;;;;;;20.87;12.67;;;7.60;90.70;;;;;;5065581;28;20708;-60
2023/03/28 06:38:57;;;;;;;21.33;13.40;;;8.40;89.30;;;;;;5065124;28;20875;-60
2023/03/28 06:41:30;;;;;;;15.10;9.40;;;9.50;87.30;;;;;;5072918;28;20482;-60
2023/03/28 06:43:57;;;;;;;20.93;12.50;;;10.20;84.60;;;;;;5061421;28;20504;-60
2023/03/28 06:46:23;;;;;;;9.27;8.33;;;10.80;84.20;;;;;;5062423;28;20722;-61
2023/03/28 06:48:50;;;;;;;16.70;12.77;;;11.80;82.10;;;;;;5060170;28;20513;-61
2023/03/28 06:51:19;;;;;;;16.77;9.37;;;12.30;80.30;;;;;;5058636;28;20496;-61
2023/03/28 06:53:46;;;;;;;15.00;9.33;;;12.90;79.40;;;;;;5070226;28;20482;-61
2023/03/28 06:56:13;;;;;;;9.50;7.53;;;13.60;78.60;;;;;;5044946;28;20475;-61
2023/03/28 06:58:40;;;;;;;12.77;9.07;;;14.10;77.30;;;;;;5068209;28;20850;-61
2023/03/28 07:01:07;;;;;;;10.33;8.83;;;;;;;;;;5072500;28;20515;-61
2023/03/28 07:03:34;;;;;;;11.13;9.57;;;15.10;75.40;;;;;;5067761;28;20478;-61
2023/03/28 07:06:04;;;;;;;11.50;10.30;;;15.40;75.10;;;;;;5056423;28;20497;-61
2023/03/28 07:08:33;;;;;;;16.93;9.83;;;16.00;74.30;;;;;;5052855;28;20486;-62
2023/03/28 07:10:59;;;;;;;13.73;11.53;;;16.30;73.70;;;;;;5058621;28;20482;-60
2023/03/28 07:13:26;;;;;;;12.93;9.30;;;16.70;73.40;;;;;;5061410;28;20497;-62
2023/03/28 07:16:00;;;;;;;12.30;11.17;;;17.10;73.00;;;;;;5064510;28;21147;-61
2023/03/28 07:18:26;;;;;;;10.00;9.00;;;17.40;72.10;;;;;;5065848;28;20907;-62
2023/03/28 07:20:54;;;;;;;14.70;11.37;;;17.70;72.40;;;;;;5072834;28;20497;-60
2023/03/28 07:23:21;;;;;;;15.80;10.40;;;18.00;71.00;;;;;;5073130;28;20466;-61
2023/03/28 07:25:49;;;;;;;18.77;12.37;;;18.10;71.20;;;;;;5067552;28;20481;-61
2023/03/28 07:28:16;;;;;;;12.70;10.87;;;18.10;69.10;;;;;;5076997;28;20490;-62
2023/03/28 07:30:42;;;;;;;15.13;10.60;;;18.10;71.30;;;;;;5046319;28;20880;-61
2023/03/28 07:33:09;;;;;;;17.30;10.27;;;17.90;71.90;;;;;;5039357;28;20489;-61
2023/03/28 07:35:39;;;;;;;11.67;10.17;;;17.60;70.70;;;;;;5067055;28;20482;-62
2023/03/28 07:38:06;;;;;;;13.80;9.80;;;17.30;71.50;;;;;;5057184;28;20475;-61
2023/03/28 07:40:33;;;;;;;13.27;10.10;;;17.20;71.50;;;;;;5072855;28;20489;-61
2023/03/28 07:43:01;;;;;;;19.70;12.10;;;17.00;71.80;;;;;;5079486;28;20746;-61
2023/03/28 07:45:28;;;;;;;22.83;10.90;;;16.60;73.10;;;;;;5055185;28;21408;-61
2023/03/28 07:47:55;;;;;;;12.97;11.57;;;16.20;70.70;;;;;;5064545;28;21060;-62
2023/03/28 07:50:22;;;;;;;13.67;10.27;;;15.90;72.60;;;;;;5063974;28;20486;-61
2023/03/28 07:52:49;;;;;;;19.10;11.17;;;15.70;72.40;;;;;;5051529;28;21056;-61
2023/03/28 07:55:16;;;;;;;13.20;9.90;;;14.70;71.80;;;;;;5066196;28;20457;-60
2023/03/28 07:57:45;;;;;;;13.20;11.03;;;14.40;72.60;;;;;;5066817;28;20482;-61
2023/03/28 08:00:16;;;;;;;17.97;8.87;;;13.40;74.10;;;;;;5056024;28;20616;-61
2023/03/28 08:02:43;;;;;;;15.23;10.87;;;13.00;75.60;;;;;;5067801;28;20484;-60
2023/03/28 08:05:10;;;;;;;14.50;10.60;;;12.40;79.00;;;;;;5077219;28;20482;-60
2023/03/28 08:07:36;;;;;;;15.20;10.60;;;12.10;79.60;;;;;;5073665;28;20489;-61
2023/03/28 08:10:04;;;;;;;18.30;11.87;;;12.20;80.70;;;;;;5069026;28;20826;-60
2023/03/28 08:12:31;;;;;;;15.20;10.50;;;12.50;80.60;;;;;;5066519;28;20504;-61
2023/03/28 08:14:58;;;;;;;20.60;13.90;;;12.60;80.30;;;;;;5068607;28;20481;-61
2023/03/28 08:17:26;;;;;;;14.83;9.40;;;12.70;81.80;;;;;;5080397;28;20912;-61
2023/03/28 08:19:53;;;;;;;19.27;12.87;;;12.70;79.60;;;;;;5049152;28;21246;-60
2023/03/28 08:22:20;;;;;;;12.77;8.13;;;12.80;80.40;;;;;;5068204;28;20789;-60
2023/03/28 08:24:47;;;;;;;15.00;10.77;;;12.70;77.50;;;;;;5070832;28;20465;-60
2023/03/28 08:27:14;;;;;;;11.40;6.33;;;12.00;74.20;;;;;;5061210;28;20564;-61
2023/03/28 08:29:41;;;;;;;12.50;6.87;;;11.40;71.70;;;;;;5075595;28;20833;-60
2023/03/28 08:32:07;;;;;;;13.20;6.80;;;11.40;76.00;;;;;;5064910;28;20492;-60
2023/03/28 08:34:36;;;;;;;10.77;7.30;;;11.60;77.70;;;;;;5064893;28;20493;-60
2023/03/28 08:37:04;;;;;;;15.37;7.30;;;11.70;76.80;;;;;;5073202;28;20601;-60
2023/03/28 08:39:31;;;;;;;11.60;6.37;;;11.40;74.60;;;;;;5067825;28;20484;-60
2023/03/28 08:42:28;;;;;;;15.10;7.50;;;11.00;73.60;;;;;;5074168;28;21215;-60
2023/03/28 08:45:20;;;;;;;20.23;8.80;;;10.50;76.40;;;;;;5029685;28;20504;-60
2023/03/28 08:47:57;;;;;;;12.57;7.47;;;10.80;79.80;;;;;;5058689;28;20485;-60
2023/03/28 08:50:30;;;;;;;10.87;6.43;;;10.90;77.90;;;;;;5064415;28;20494;-60
2023/03/28 08:52:58;;;;;;;16.43;8.57;;;11.00;76.30;;;;;;5068786;27;20893;-60
2023/03/28 08:55:31;;;;;;;17.73;7.27;;;10.70;76.40;;;;;;5079931;28;20485;-61
2023/03/28 08:57:58;;;;;;;18.07;9.67;;;10.40;76.90;;;;;;5048988;28;20477;-60
2023/03/28 09:00:29;;;;;;;9.10;6.47;;;9.90;78.00;;;;;;5070849;28;20864;-61
2023/03/28 09:02:56;;;;;;;18.33;9.90;;;9.60;81.20;;;;;;5083429;28;20484;-60
2023/03/28 09:05:35;;;;;;;20.87;7.10;;;9.50;82.10;;;;;;5065210;28;20846;-60
2023/03/28 09:08:16;;;;;;;13.00;8.43;;;9.60;80.50;;;;;;5069494;28;20480;-60
2023/03/28 09:10:45;;;;;;;21.90;6.43;;;9.90;78.70;;;;;;5072439;28;20482;-60
2023/03/28 09:13:27;;;;;;;8.00;5.60;;;10.10;76.80;;;;;;5079286;28;20477;-60
2023/03/28 09:16:08;;;;;;;19.77;10.67;;;10.10;77.70;;;;;;5070666;28;20489;-60
2023/03/28 09:18:50;;;;;;;13.33;7.87;;;10.00;77.40;;;;;;5074072;27;21120;-61
2023/03/28 09:21:24;;;;;;;8.60;5.23;;;10.10;77.30;;;;;;5082291;28;20471;-60
2023/03/28 09:24:15;;;;;;;19.23;9.80;;;9.90;79.20;;;;;;5069738;28;20496;-61
2023/03/28 09:26:45;;;;;;;10.60;6.10;;;9.60;78.50;;;;;;5042703;28;20470;-60
2023/03/28 09:29:16;;;;;;;11.20;6.10;;;9.40;80.10;;;;;;5090106;27;20481;-60
2023/03/28 09:31:47;;;;;;;5.83;4.63;;;9.40;77.30;;;;;;5078248;28;20513;-60
2023/03/28 09:34:20;;;;;;;13.53;7.10;;;9.30;75.40;;;;;;5061674;28;21253;-60
2023/03/28 09:36:51;;;;;;;17.67;6.53;;;9.50;77.90;;;;;;5060292;28;20474;-60
2023/03/28 09:39:26;;;;;;;9.33;5.10;;;9.80;77.70;;;;;;5059628;28;20489;-60
2023/03/28 09:42:00;;;;;;;9.73;5.67;;;9.60;74.20;;;;;;5070882;28;20478;-60
2023/03/28 09:44:32;;;;;;;13.73;5.10;;;9.70;74.20;;;;;;5076475;28;21204;-60
2023/03/28 09:47:00;;;;;;;16.97;8.53;;;9.70;70.80;;;;;;5060271;28;20872;-60
2023/03/28 09:49:27;;;;;;;9.80;5.13;;;9.70;71.00;;;;;;5082442;28;20485;-61
2023/03/28 09:51:56;;;;;;;17.47;8.53;;;9.60;69.00;;;;;;5063931;28;20484;-61
2023/03/28 09:54:29;;;;;;;8.20;5.60;;;10.60;74.90;;;;;;5077837;28;20818;-61
2023/03/28 09:57:00;;;;;;;14.87;9.33;;;10.20;72.20;;;;;;5073587;28;20861;-60
2023/03/28 09:59:29;;;;;;;10.33;5.93;;;10.20;69.70;;;;;;5052007;28;20970;-60
2023/03/28 10:02:01;;;;;;;15.50;7.53;;;9.90;69.50;;;;;;5056541;28;20962;-60
2023/03/28 10:04:36;;;;;;;12.77;7.33;;;9.80;69.90;;;;;;5078398;28;20486;-60
2023/03/28 10:07:42;;;;;;;16.63;6.90;;;9.90;73.90;;;;;;5064699;28;21060;-60
2023/03/28 10:10:18;;;;;;;7.60;5.30;;;10.20;74.20;;;;;;5006761;28;20469;-60
2023/03/28 10:12:47;;;;;;;19.67;5.73;;;10.30;72.20;;;;;;5051828;28;20484;-60
2023/03/28 10:15:32;;;;;;;7.23;4.80;;;10.20;66.30;;;;;;5068505;28;20474;-60
2023/03/28 10:18:01;;;;;;;13.23;8.53;;;10.00;63.30;;;;;;5067310;28;20989;-60
2023/03/28 10:20:32;;;;;;;8.30;5.50;;;9.90;67.20;;;;;;5077528;28;20552;-60
2023/03/28 10:23:00;;;;;;;16.67;7.37;;;9.90;70.30;;;;;;5037530;28;20844;-60
2023/03/28 10:25:35;;;;;;;12.00;7.30;;;9.90;70.50;;;;;;5047555;28;21480;-60
2023/03/28 10:28:03;;;;;;;9.63;6.10;;;9.90;70.50;;;;;;5036106;28;20564;-61
2023/03/28 10:30:32;;;;;;;7.13;4.90;;;9.90;70.90;;;;;;5060446;28;20507;-59
2023/03/28 10:33:20;;;;;;;14.40;9.50;;;9.80;68.70;;;;;;5062069;28;20481;-60
2023/03/28 10:35:54;;;;;;;13.63;5.23;;;9.90;71.20;;;;;;5037484;28;20542;-60
2023/03/28 10:38:24;;;;;;;7.00;4.10;;;10.10;71.30;;;;;;5077623;28;20902;-61
2023/03/28 10:40:53;;;;;;;13.23;6.70;;;10.00;68.70;;;;;;5074054;28;20527;-60
2023/03/28 10:43:20;;;;;;;7.50;4.40;;;10.30;72.00;;;;;;5079125;28;20506;-61
2023/03/28 10:45:49;;;;;;;13.17;7.17;;;10.50;71.80;;;;;;5071257;27;20523;-61
2023/03/28 10:48:18;;;;;;;12.87;5.20;;;10.20;68.90;;;;;;5070398;28;20486;-61
2023/03/28 10:50:47;;;;;;;13.43;7.00;;;10.10;69.30;;;;;;5082008;27;20474;-61
2023/03/28 10:53:44;;;;;;;8.50;4.50;;;10.20;69.80;;;;;;5080560;28;20489;-61
2023/03/28 10:56:24;;;;;;;13.13;5.40;;;9.90;68.90;;;;;;5060160;28;20470;-60
2023/03/28 10:59:02;;;;;;;15.77;9.47;;;9.80;70.30;;;;;;5052138;28;20580;-61
2023/03/28 11:01:36;;;;;;;13.87;6.03;;;10.00;69.30;;;;;;5063276;28;20462;-60
2023/03/28 11:04:14;;;;;;;12.07;8.70;;;10.30;75.50;;;;;;5059596;28;20511;-60
2023/03/28 11:06:47;;;;;;;10.10;5.93;;;10.50;73.90;;;;;;5039501;28;20619;-61
2023/03/28 11:09:24;;;;;;;10.70;5.37;;;10.60;69.90;;;;;;5047596;28;21091;-61
2023/03/28 11:12:02;;;;;;;14.57;8.93;;;10.70;68.70;;;;;;5078322;28;20732;-60
2023/03/28 11:14:41;;;;;;;11.40;5.90;;;10.50;68.90;;;;;;5068752;28;20586;-60
2023/03/28 11:17:14;;;;;;;11.57;6.70;;;10.50;68.90;;;;;;5070425;28;20468;-61
2023/03/28 11:20:07;;;;;;;13.97;5.20;;;10.70;69.90;;;;;;5066004;28;20674;-60
2023/03/28 11:22:45;;;;;;;12.63;6.43;;;11.00;67.90;;;;;;5062530;28;20511;-60
2023/03/28 11:25:21;;;;;;;17.23;5.90;;;11.20;70.70;;;;;;5056615;28;20507;-61
2023/03/28 11:27:58;;;;;;;10.63;6.10;;;11.10;70.20;;;;;;5059630;28;20473;-61
2023/03/28 11:30:30;;;;;;;8.77;4.87;;;11.10;69.10;;;;;;5068205;28;20475;-61
2023/03/28 11:33:02;;;;;;;14.67;9.50;;;10.80;68.50;;;;;;5056576;28;21288;-60
2023/03/28 11:35:35;;;;;;;13.17;5.47;;;10.60;66.50;;;;;;5070180;28;20951;-60
2023/03/28 11:38:06;;;;;;;18.50;8.57;;;13.40;72.60;;;;;;5067345;27;20976;-61
2023/03/28 11:40:50;;;;;;;10.03;6.00;;;10.50;69.30;;;;;;5085627;28;20565;-60
2023/03/28 11:43:26;;;;;;;10.93;6.03;;;10.60;71.70;;;;;;5069231;28;20565;-61
2023/03/28 11:45:58;;;;;;;27.87;7.13;;;10.00;70.00;;;;;;5069678;28;21219;-61
2023/03/28 11:48:28;;;;;;;17.87;6.43;;;10.80;68.60;;;;;;5046312;28;20479;-60
2023/03/28 11:51:03;;;;;;;15.20;8.17;;;10.80;72.10;;;;;;5059929;28;20481;-60
2023/03/28 11:53:34;;;;;;;12.93;8.10;;;10.70;70.70;;;;;;5075311;28;21084;-60
2023/03/28 11:56:12;;;;;;;12.70;8.10;;;10.60;69.20;;;;;;5072498;28;21497;-60
2023/03/28 11:58:43;;;;;;;8.90;5.57;;;10.70;71.30;;;;;;5072308;28;20628;-60
2023/03/28 12:01:14;;;;;;;9.30;5.43;;;10.60;72.80;;;;;;5065592;28;20490;-60
2023/03/28 12:03:54;;;;;;;12.40;5.33;;;10.50;71.30;;;;;;5068267;28;20478;-60
2023/03/28 12:06:27;;;;;;;8.10;5.27;;;10.50;70.70;;;;;;5069191;28;20564;-60
2023/03/28 12:08:58;;;;;;;14.53;7.40;;;10.50;70.90;;;;;;5079305;28;20847;-61
2023/03/28 12:11:31;;;;;;;9.03;5.43;;;10.60;70.40;;;;;;5085212;28;20493;-60
2023/03/28 12:14:03;;;;;;;12.90;8.33;;;10.80;72.20;;;;;;5093582;27;20488;-60
2023/03/28 12:16:35;;;;;;;11.37;6.77;;;10.70;68.40;;;;;;5070420;28;20473;-60
2023/03/28 12:19:05;;;;;;;15.47;7.87;;;10.70;69.00;;;;;;5084070;28;20705;-61
2023/03/28 12:21:37;;;;;;;14.53;4.50;;;10.70;69.30;;;;;;5074128;28;20486;-60
2023/03/28 12:24:13;;;;;;;18.20;6.93;;;10.70;70.20;;;;;;5064237;28;20493;-60
2023/03/28 12:26:52;;;;;;;16.13;6.60;;;10.50;69.10;;;;;;5071538;28;20529;-61
2023/03/28 12:29:24;;;;;;;13.97;7.03;;;10.20;70.00;;;;;;5069847;28;20469;-61
2023/03/28 12:31:56;;;;;;;18.70;9.47;;;10.00;70.30;;;;;;5059054;28;20908;-61
2023/03/28 12:34:27;;;;;;;11.47;6.70;;;10.20;69.80;;;;;;5059269;28;20527;-61
2023/03/28 12:37:00;;;;;;;20.70;11.30;;;10.20;69.30;;;;;;5059154;28;20478;-61
2023/03/28 12:39:36;;;;;;;13.00;6.70;;;10.50;70.50;;;;;;5073922;28;20491;-61
2023/03/28 12:42:09;;;;;;;16.10;9.50;;;10.70;71.30;;;;;;5053704;28;20488;-61
2023/03/28 12:44:42;;;;;;;16.47;8.23;;;10.80;69.90;;;;;;5056771;28;20568;-61
2023/03/28 12:47:15;;;;;;;25.67;12.03;;;11.10;71.90;;;;;;5049127;28;20508;-61
2023/03/28 12:49:46;;;;;;;10.70;5.60;;;11.70;70.70;;;;;;5070518;28;20478;-61
2023/03/28 12:52:19;;;;;;;8.23;5.40;;;12.00;71.60;;;;;;5046559;28;20478;-61
2023/03/28 12:54:57;;;;;;;10.30;5.83;;;12.20;71.60;;;;;;5079626;28;21263;-61
2023/03/28 12:57:46;;;;;;;13.60;7.20;;;12.10;70.00;;;;;;5075473;28;21075;-61
2023/03/28 13:00:25;;;;;;;20.90;8.97;;;12.20;69.40;;;;;;5062020;28;20478;-61
2023/03/28 13:03:08;;;;;;;30.40;11.93;;;12.10;70.30;;;;;;5077816;28;20469;-61
2023/03/28 13:05:44;;;;;;;13.93;6.80;;;12.40;69.70;;;;;;5071853;28;20788;-61